Time;durP1;ratioP1;P1;durP2;ratioP2;P2;SDS_P1;SDS_P2;PMS_P1;PMS_P2;Temp;Humidity;BMP_temperature;BMP_pressure;BME280_temperature;BME280_humidity;BME280_pressure;Samples;Min_cycle;Max_cycle;Signal;HPM_P1;HPM_P2
2021/09/22 00:00:59;;;;;;;5.80;3.60;;;;;;;;;;5072888;28;20238;-80
2021/09/22 00:03:26;;;;;;;3.57;3.27;;;;;;;;;;5072743;28;20265;-80
2021/09/22 00:05:54;;;;;;;6.60;3.73;;;;;;;;;;5055039;28;20237;-81
2021/09/22 00:08:20;;;;;;;4.40;3.67;;;;;;;;;;5073016;28;20245;-80
2021/09/22 00:10:47;;;;;;;4.07;3.73;;;;;;;;;;5072700;28;20555;-80
2021/09/22 00:13:14;;;;;;;3.90;3.60;;;;;;;;;;5072880;28;20309;-81
2021/09/22 00:15:40;;;;;;;3.63;3.40;;;;;;;;;;5072500;28;20257;-81
2021/09/22 00:18:07;;;;;;;3.50;3.20;;;;;;;;;;5054887;28;20652;-80
2021/09/22 00:20:34;;;;;;;3.80;3.50;;;;;;;;;;5072452;28;20689;-80
2021/09/22 00:23:02;;;;;;;3.57;3.27;;;;;;;;;;5072255;28;20264;-80
2021/09/22 00:25:32;;;;;;;5.87;3.77;;;;;;;;;;5072546;28;20237;-81
2021/09/22 00:27:59;;;;;;;7.93;3.53;;;;;;;;;;5072626;28;20432;-80
2021/09/22 00:30:25;;;;;;;5.13;3.47;;;;;;;;;;5054633;28;20584;-80
2021/09/22 00:32:52;;;;;;;4.23;3.23;;;;;;;;;;5054160;28;20728;-81
2021/09/22 00:35:19;;;;;;;3.43;3.20;;;;;;;;;;5072387;28;20234;-81
2021/09/22 00:37:46;;;;;;;3.33;3.03;;;;;;;;;;5054507;28;20287;-80
2021/09/22 00:40:14;;;;;;;4.53;3.77;;;;;;;;;;5072101;28;20242;-81
2021/09/22 00:42:41;;;;;;;3.93;3.60;;;;;;;;;;5071681;28;20257;-81
2021/09/22 00:45:09;;;;;;;4.07;3.30;;;;;;;;;;5071862;28;20230;-80
2021/09/22 00:47:36;;;;;;;3.73;3.43;;;;;;;;;;5053676;28;20512;-80
2021/09/22 00:50:04;;;;;;;6.37;4.03;;;;;;;;;;5071841;28;20296;-80
2021/09/22 00:52:30;;;;;;;7.57;4.00;;;;;;;;;;5054041;28;20202;-80
2021/09/22 00:54:57;;;;;;;3.67;3.37;;;;;;;;;;5071457;28;20238;-81
2021/09/22 00:57:25;;;;;;;3.63;3.33;;;;;;;;;;5071742;28;20234;-81
2021/09/22 00:59:52;;;;;;;4.27;3.50;;;;;;;;;;5053887;28;20224;-81
2021/09/22 01:02:19;;;;;;;4.67;3.20;;;;;;;;;;5053261;28;20250;-80
2021/09/22 01:04:46;;;;;;;4.17;3.77;;;;;;;;;;5053551;28;20226;-81
2021/09/22 01:07:13;;;;;;;6.37;3.40;;;;;;;;;;5071295;28;20244;-81
2021/09/22 01:09:40;;;;;;;7.33;3.70;;;;;;;;;;5053753;28;20529;-80
2021/09/22 01:12:08;;;;;;;4.63;3.40;;;;;;;;;;5071018;28;20242;-81
2021/09/22 01:14:36;;;;;;;5.80;3.57;;;;;;;;;;5071274;28;20254;-81
2021/09/22 01:17:03;;;;;;;5.20;3.80;;;;;;;;;;5053675;28;20256;-81
2021/09/22 01:19:29;;;;;;;4.20;3.80;;;;;;;;;;5071201;28;20241;-80
2021/09/22 01:21:57;;;;;;;5.27;3.57;;;;;;;;;;5071145;28;20645;-80
2021/09/22 01:24:24;;;;;;;5.00;3.60;;;;;;;;;;5071522;28;20632;-80
2021/09/22 01:26:51;;;;;;;5.30;3.60;;;;;;;;;;5053453;28;20211;-80
2021/09/22 01:29:18;;;;;;;5.13;3.80;;;;;;;;;;5071270;28;20238;-81
2021/09/22 01:31:45;;;;;;;4.00;3.30;;;;;;;;;;5071539;28;20202;-80
2021/09/22 01:34:13;;;;;;;4.13;3.73;;;;;;;;;;5070825;28;20248;-80
2021/09/22 01:36:39;;;;;;;3.73;3.43;;;;;;;;;;5052985;28;20202;-80
2021/09/22 01:39:07;;;;;;;3.80;3.50;;;;;;;;;;5071469;28;20642;-80
2021/09/22 01:41:34;;;;;;;4.00;3.60;;;;;;;;;;5070864;28;20234;-80
2021/09/22 01:44:01;;;;;;;4.20;3.80;;;;;;;;;;5070865;28;20253;-81
2021/09/22 01:46:27;;;;;;;5.50;4.00;;;;;;;;;;5070817;28;20241;-80
2021/09/22 01:48:54;;;;;;;3.93;3.43;;;;;;;;;;5070616;28;20233;-80
2021/09/22 01:51:21;;;;;;;6.33;4.10;;;;;;;;;;5071268;28;20249;-81
2021/09/22 01:53:47;;;;;;;3.97;3.57;;;;;;;;;;5071338;28;20642;-81
2021/09/22 01:56:15;;;;;;;3.70;3.40;;;;;;;;;;5071272;28;20210;-81
2021/09/22 01:58:42;;;;;;;4.30;3.93;;;;;;;;;;5053006;28;20228;-81
2021/09/22 02:01:12;;;;;;;4.27;3.83;;;;;;;;;;5070978;28;20210;-81
2021/09/22 02:03:39;;;;;;;5.40;4.00;;;;;;;;;;5070920;28;20258;-81
2021/09/22 02:06:06;;;;;;;8.13;4.13;;;;;;;;;;5070877;28;20236;-81
2021/09/22 02:08:33;;;;;;;3.27;3.07;;;;;;;;;;5055436;28;20248;-80
2021/09/22 02:10:59;;;;;;;5.97;3.77;;;;;;;;;;5075153;28;20644;-81
2021/09/22 02:13:27;;;;;;;4.70;3.80;;;;;;;;;;5074880;28;20614;-81
2021/09/22 02:15:54;;;;;;;3.80;3.50;;;;;;;;;;5074952;28;20245;-80
2021/09/22 02:18:21;;;;;;;6.57;3.87;;;;;;;;;;5074480;28;20242;-80
2021/09/22 02:20:47;;;;;;;5.70;3.93;;;;;;;;;;5056820;28;20232;-81
2021/09/22 02:23:14;;;;;;;4.20;3.90;;;;;;;;;;5075228;28;20237;-81
2021/09/22 02:25:41;;;;;;;4.43;4.03;;;;;;;;;;5056462;28;20237;-81
2021/09/22 02:28:07;;;;;;;5.53;4.30;;;;;;;;;;5074499;28;20245;-80
2021/09/22 02:30:35;;;;;;;4.70;4.00;;;;;;;;;;5074264;28;20241;-80
2021/09/22 02:33:02;;;;;;;6.33;3.80;;;;;;;;;;5074359;28;20234;-80
2021/09/22 02:35:29;;;;;;;4.47;4.07;;;;;;;;;;5056473;28;20658;-80
2021/09/22 02:37:55;;;;;;;5.17;4.27;;;;;;;;;;5056461;28;20233;-81
2021/09/22 02:40:22;;;;;;;4.77;4.33;;;;;;;;;;5056334;28;20230;-80
2021/09/22 02:42:49;;;;;;;4.40;4.00;;;;;;;;;;5074552;28;20585;-80
2021/09/22 02:45:15;;;;;;;5.47;4.07;;;;;;;;;;5074095;28;20221;-79
2021/09/22 02:47:44;;;;;;;6.10;4.70;;;;;;;;;;5074588;28;20214;-80
2021/09/22 02:50:13;;;;;;;4.83;4.47;;;;;;;;;;5074527;28;20245;-80
2021/09/22 02:52:40;;;;;;;4.80;4.30;;;;;;;;;;5074268;28;20229;-80
2021/09/22 02:55:07;;;;;;;4.97;4.40;;;;;;;;;;5056233;28;20217;-79
2021/09/22 02:57:34;;;;;;;6.47;4.47;;;;;;;;;;5055963;28;20622;-80
2021/09/22 03:00:02;;;;;;;4.63;4.20;;;;;;;;;;5074252;28;20238;-79
2021/09/22 03:02:29;;;;;;;4.93;4.37;;;;;;;;;;5073779;28;20234;-80
2021/09/22 03:04:57;;;;;;;9.07;4.27;;;;;;;;;;5073622;28;20265;-80
2021/09/22 03:07:23;;;;;;;10.53;4.40;;;;;;;;;;5074159;28;20647;-80
2021/09/22 03:09:50;;;;;;;4.90;4.10;;;;;;;;;;5073897;28;20245;-80
2021/09/22 03:12:16;;;;;;;5.17;4.40;;;;;;;;;;5073361;28;20230;-79
2021/09/22 03:14:43;;;;;;;5.33;4.43;;;;;;;;;;5073360;28;20227;-80
2021/09/22 03:17:10;;;;;;;4.60;4.20;;;;;;;;;;5056000;28;20580;-80
2021/09/22 03:19:37;;;;;;;5.10;4.60;;;;;;;;;;5073316;28;20246;-80
2021/09/22 03:22:05;;;;;;;4.90;4.40;;;;;;;;;;5073683;28;20210;-80
2021/09/22 03:24:32;;;;;;;5.87;4.50;;;;;;;;;;5055264;28;20297;-80
2021/09/22 03:26:58;;;;;;;5.83;4.80;;;;;;;;;;5073615;28;20210;-80
2021/09/22 03:29:25;;;;;;;5.07;4.57;;;;;;;;;;5073370;28;20238;-80
2021/09/22 03:31:52;;;;;;;4.80;4.40;;;;;;;;;;5055430;28;20230;-80
2021/09/22 03:34:19;;;;;;;5.63;4.30;;;;;;;;;;5073453;28;20245;-79
2021/09/22 03:36:45;;;;;;;6.33;4.23;;;;;;;;;;5055557;28;20202;-80
2021/09/22 03:39:14;;;;;;;6.17;4.33;;;;;;;;;;5073624;28;20246;-80
2021/09/22 03:41:40;;;;;;;6.50;4.40;;;;;;;;;;5073664;28;20205;-80
2021/09/22 03:44:07;;;;;;;4.77;4.17;;;;;;;;;;5072874;28;20253;-80
2021/09/22 03:46:34;;;;;;;4.70;4.30;;;;;;;;;;5073440;28;20581;-80
2021/09/22 03:49:00;;;;;;;5.10;4.53;;;;;;;;;;5055116;28;20225;-80
2021/09/22 03:51:27;;;;;;;6.80;4.63;;;;;;;;;;5073075;28;20257;-80
2021/09/22 03:53:54;;;;;;;5.27;4.70;;;;;;;;;;5072895;28;20234;-80
2021/09/22 03:56:22;;;;;;;5.57;4.50;;;;;;;;;;5054936;28;20735;-80
2021/09/22 03:58:48;;;;;;;5.97;4.73;;;;;;;;;;5073020;28;20245;-80
2021/09/22 04:01:15;;;;;;;6.43;5.10;;;;;;;;;;5072815;28;20241;-79
2021/09/22 04:03:42;;;;;;;5.87;4.60;;;;;;;;;;5054889;28;20295;-80
2021/09/22 04:06:09;;;;;;;7.67;4.40;;;;;;;;;;5073005;28;20234;-80
2021/09/22 04:08:35;;;;;;;5.33;4.80;;;;;;;;;;5054712;28;20203;-80
2021/09/22 04:11:02;;;;;;;5.20;4.50;;;;;;;;;;5073072;28;20211;-79
2021/09/22 04:13:30;;;;;;;5.00;4.50;;;;;;;;;;5072085;28;20703;-80
2021/09/22 04:15:57;;;;;;;4.93;4.43;;;;;;;;;;5054454;28;20206;-80
2021/09/22 04:18:23;;;;;;;5.47;4.97;;;;;;;;;;5054606;28;20199;-80
2021/09/22 04:20:50;;;;;;;7.20;4.60;;;;;;;;;;5054538;28;20242;-79
2021/09/22 04:23:17;;;;;;;5.97;4.63;;;;;;;;;;5054180;28;20234;-79
2021/09/22 04:25:44;;;;;;;5.60;4.80;;;;;;;;;;5072284;28;20261;-80
2021/09/22 04:28:12;;;;;;;6.70;4.73;;;;;;;;;;5072767;28;20210;-80
2021/09/22 04:30:39;;;;;;;7.67;4.43;;;;;;;;;;5071676;28;20776;-79
2021/09/22 04:33:06;;;;;;;5.90;4.93;;;;;;;;;;5072581;28;20221;-79
2021/09/22 04:35:34;;;;;;;4.87;4.20;;;;;;;;;;5054230;28;20217;-80
2021/09/22 04:38:01;;;;;;;5.47;4.70;;;;;;;;;;5054118;28;20199;-80
2021/09/22 04:40:29;;;;;;;5.37;4.87;;;;;;;;;;5071527;28;20214;-82
2021/09/22 04:42:56;;;;;;;5.00;4.60;;;;;;;;;;5071746;28;20210;-82
2021/09/22 04:45:25;;;;;;;5.23;4.43;;;;;;;;;;5072001;28;20258;-80
2021/09/22 04:47:53;;;;;;;7.80;5.10;;;;;;;;;;5071882;28;20242;-80
2021/09/22 04:50:20;;;;;;;5.10;4.60;;;;;;;;;;5071750;28;20254;-82
2021/09/22 04:52:47;;;;;;;8.97;5.30;;;;;;;;;;5054105;28;20230;-83
2021/09/22 04:55:13;;;;;;;7.83;5.07;;;;;;;;;;5071841;28;20269;-83
2021/09/22 04:57:40;;;;;;;8.40;4.97;;;;;;;;;;5053656;28;20198;-80
2021/09/22 05:00:08;;;;;;;6.60;4.63;;;;;;;;;;5072517;28;20599;-80
2021/09/22 05:02:35;;;;;;;5.67;5.07;;;;;;;;;;5054081;28;20225;-79
2021/09/22 05:05:03;;;;;;;8.93;4.77;;;;;;;;;;5072057;28;20253;-79
2021/09/22 05:07:29;;;;;;;4.60;4.20;;;;;;;;;;5053948;28;20499;-79
2021/09/22 05:09:56;;;;;;;7.00;4.80;;;;;;;;;;5053736;28;20328;-79
2021/09/22 05:12:23;;;;;;;4.73;4.33;;;;;;;;;;5053545;28;20190;-79
2021/09/22 05:14:49;;;;;;;6.63;5.60;;;;;;;;;;5071445;28;20246;-79
2021/09/22 05:17:17;;;;;;;7.10;5.20;;;;;;;;;;5071462;28;20229;-79
2021/09/22 05:19:44;;;;;;;5.77;5.13;;;;;;;;;;5071404;28;20234;-79
2021/09/22 05:22:15;;;;;;;9.97;5.30;;;;;;;;;;5071540;28;20230;-79
2021/09/22 05:24:42;;;;;;;7.50;5.53;;;;;;;;;;5071381;28;20250;-79
2021/09/22 05:27:09;;;;;;;8.83;4.57;;;;;;;;;;5071295;28;20261;-82
2021/09/22 05:29:35;;;;;;;6.83;4.67;;;;;;;;;;5053522;28;20194;-81
2021/09/22 05:32:02;;;;;;;5.30;4.80;;;;;;;;;;5053961;28;20639;-80
2021/09/22 05:34:29;;;;;;;5.57;4.90;;;;;;;;;;5053763;28;20203;-79
2021/09/22 05:36:55;;;;;;;5.97;4.57;;;;;;;;;;5072138;28;20690;-80
2021/09/22 05:39:24;;;;;;;7.97;4.33;;;;;;;;;;5070873;28;20682;-80
2021/09/22 05:41:50;;;;;;;8.73;5.07;;;;;;;;;;5071389;28;20210;-81
2021/09/22 05:44:17;;;;;;;9.40;5.53;;;;;;;;;;5052859;28;20202;-79
2021/09/22 05:46:44;;;;;;;6.83;5.30;;;;;;;;;;5071561;28;20589;-79
2021/09/22 05:49:10;;;;;;;9.23;4.93;;;;;;;;;;5053282;28;20256;-79
2021/09/22 05:51:37;;;;;;;9.37;5.33;;;;;;;;;;5070991;28;20265;-80
2021/09/22 05:54:04;;;;;;;8.10;5.80;;;;;;;;;;5053115;28;20226;-79
2021/09/22 05:56:32;;;;;;;8.40;5.13;;;;;;;;;;5071209;28;20230;-79
2021/09/22 05:58:59;;;;;;;13.27;5.80;;;;;;;;;;5053523;28;20195;-79
2021/09/22 06:01:25;;;;;;;9.37;5.73;;;;;;;;;;5051112;28;20254;-80
2021/09/22 06:03:52;;;;;;;10.43;5.70;;;;;;;;;;5049859;28;20237;-81
2021/09/22 06:06:19;;;;;;;9.53;5.80;;;;;;;;;;5033325;28;20239;-80
2021/09/22 06:08:45;;;;;;;9.03;5.93;;;;;;;;;;5051722;28;20231;-80
2021/09/22 06:11:12;;;;;;;6.93;5.50;;;;;;;;;;5033292;28;20218;-80
2021/09/22 06:13:40;;;;;;;6.07;5.20;;;;;;;;;;5051072;28;20263;-80
2021/09/22 06:16:07;;;;;;;7.50;5.00;;;;;;;;;;5051525;28;20235;-80
2021/09/22 06:18:35;;;;;;;9.53;5.30;;;;;;;;;;5033556;28;20180;-80
2021/09/22 06:21:04;;;;;;;8.13;5.03;;;;;;;;;;5051694;28;20261;-80
2021/09/22 06:23:31;;;;;;;6.90;4.97;;;;;;;;;;5033461;28;20195;-80
2021/09/22 06:25:57;;;;;;;9.20;5.30;;;;;;;;;;5051455;28;20258;-80
2021/09/22 06:28:24;;;;;;;5.73;4.60;;;;;;;;;;5033526;28;20184;-80
2021/09/22 06:30:52;;;;;;;7.07;5.97;;;;;;;;;;5051531;28;20744;-80
2021/09/22 06:33:19;;;;;;;6.03;5.17;;;;;;;;;;5050768;28;20211;-80
2021/09/22 06:35:45;;;;;;;9.57;5.13;;;;;;;;;;5050378;28;20237;-80
2021/09/22 06:38:12;;;;;;;9.53;5.10;;;;;;;;;;5051727;28;20207;-80
2021/09/22 06:40:39;;;;;;;9.50;5.10;;;;;;;;;;5033659;28;20207;-80
2021/09/22 06:43:06;;;;;;;9.23;5.50;;;;;;;;;;5033519;28;20183;-80
2021/09/22 06:45:33;;;;;;;8.63;5.00;;;;;;;;;;5049727;28;20292;-80
2021/09/22 06:48:01;;;;;;;7.10;5.10;;;;;;;;;;5051449;28;20239;-81
2021/09/22 06:50:29;;;;;;;10.67;5.80;;;;;;;;;;5051132;28;20306;-80
2021/09/22 06:52:56;;;;;;;11.60;5.50;;;;;;;;;;5051666;28;20671;-80
2021/09/22 06:55:23;;;;;;;17.93;5.43;;;;;;;;;;5037059;28;20199;-80
2021/09/22 06:57:49;;;;;;;8.47;5.13;;;;;;;;;;5055312;28;20635;-80
2021/09/22 07:00:16;;;;;;;9.83;5.33;;;;;;;;;;5054670;28;20258;-80
2021/09/22 07:02:43;;;;;;;10.93;5.73;;;;;;;;;;5054609;28;20258;-80
2021/09/22 07:05:13;;;;;;;12.43;5.87;;;;;;;;;;5036938;28;20247;-80
2021/09/22 07:07:40;;;;;;;7.87;6.00;;;;;;;;;;5054810;28;20235;-80
2021/09/22 07:10:07;;;;;;;7.57;5.70;;;;;;;;;;5054516;28;20239;-81
2021/09/22 07:12:34;;;;;;;13.27;5.80;;;;;;;;;;5036859;28;20199;-80
2021/09/22 07:15:01;;;;;;;9.57;5.70;;;;;;;;;;5054430;28;20259;-80
2021/09/22 07:17:27;;;;;;;9.20;5.87;;;;;;;;;;5036277;28;20663;-80
2021/09/22 07:19:54;;;;;;;9.77;6.37;;;;;;;;;;5036585;28;20246;-80
2021/09/22 07:22:22;;;;;;;8.57;6.33;;;;;;;;;;5054568;28;20234;-79
2021/09/22 07:24:49;;;;;;;15.90;6.80;;;;;;;;;;5054482;28;20203;-80
2021/09/22 07:27:16;;;;;;;8.63;6.07;;;;;;;;;;5054578;28;20208;-79
2021/09/22 07:29:43;;;;;;;7.73;6.20;;;;;;;;;;5054349;28;20222;-79
2021/09/22 07:32:10;;;;;;;7.40;6.20;;;;;;;;;;5054284;28;20211;-79
2021/09/22 07:34:36;;;;;;;10.30;6.57;;;;;;;;;;5054325;28;20212;-79
2021/09/22 07:37:07;;;;;;;6.80;6.10;;;;;;;;;;5052951;28;20196;-80
2021/09/22 07:39:36;;;;;;;7.03;6.10;;;;;;;;;;5054148;28;20242;-80
2021/09/22 07:42:03;;;;;;;12.20;6.33;;;;;;;;;;5054839;28;20218;-80
2021/09/22 07:44:29;;;;;;;11.30;6.70;;;;;;;;;;5054160;28;20211;-80
2021/09/22 07:46:56;;;;;;;20.70;6.90;;;;;;;;;;5054308;28;20679;-80
2021/09/22 07:49:23;;;;;;;9.83;6.80;;;;;;;;;;5053759;28;20234;-80
2021/09/22 07:51:50;;;;;;;9.33;6.83;;;;;;;;;;5053522;28;20582;-80
2021/09/22 07:54:16;;;;;;;15.10;7.10;;;;;;;;;;5056871;28;20245;-79
2021/09/22 07:56:44;;;;;;;10.00;6.97;;;;;;;;;;5073495;28;20226;-80
2021/09/22 07:59:11;;;;;;;7.67;6.77;;;;;;;;;;5073794;28;20199;-80
2021/09/22 08:01:38;;;;;;;10.57;6.83;;;;;;;;;;5073631;28;20230;-80
2021/09/22 08:04:05;;;;;;;11.93;7.17;;;;;;;;;;5055310;28;20206;-80
2021/09/22 08:06:32;;;;;;;14.37;6.53;;;;;;;;;;5071708;28;20277;-80
2021/09/22 08:08:58;;;;;;;17.13;6.97;;;;;;;;;;5073162;28;20249;-80
2021/09/22 08:11:25;;;;;;;8.93;6.93;;;;;;;;;;5072961;28;20211;-80
2021/09/22 08:13:53;;;;;;;15.63;7.07;;;;;;;;;;5073531;28;20254;-79
2021/09/22 08:16:20;;;;;;;8.23;6.83;;;;;;;;;;5073309;28;20651;-81
2021/09/22 08:18:47;;;;;;;15.90;6.90;;;;;;;;;;5073134;28;20245;-80
2021/09/22 08:21:14;;;;;;;12.43;6.57;;;;;;;;;;5073268;28;20615;-80
2021/09/22 08:23:41;;;;;;;12.37;7.73;;;;;;;;;;5073737;28;20225;-81
2021/09/22 08:26:08;;;;;;;8.23;7.23;;;;;;;;;;5072281;28;20300;-81
2021/09/22 08:28:34;;;;;;;16.83;7.57;;;;;;;;;;5073190;28;20209;-80
2021/09/22 08:31:03;;;;;;;9.87;7.33;;;;;;;;;;5072931;28;20230;-82
2021/09/22 08:33:30;;;;;;;12.53;8.20;;;;;;;;;;5055102;28;20210;-81
2021/09/22 08:35:56;;;;;;;10.20;7.57;;;;;;;;;;5072845;28;20203;-77
2021/09/22 08:38:23;;;;;;;11.60;7.60;;;;;;;;;;5072164;28;20688;-79
2021/09/22 08:40:51;;;;;;;13.57;7.57;;;;;;;;;;5072738;28;20214;-79
2021/09/22 08:43:21;;;;;;;11.70;7.30;;;;;;;;;;5072835;28;20203;-81
2021/09/22 08:45:49;;;;;;;12.73;7.57;;;;;;;;;;5072408;28;20694;-80
2021/09/22 08:48:17;;;;;;;11.03;7.43;;;;;;;;;;5072578;28;20242;-80
2021/09/22 08:50:43;;;;;;;11.40;7.30;;;;;;;;;;5072529;28;20253;-81
2021/09/22 08:53:10;;;;;;;14.40;7.67;;;;;;;;;;5054400;28;20646;-81
2021/09/22 08:55:37;;;;;;;8.83;6.93;;;;;;;;;;5072107;28;20249;-81
2021/09/22 08:58:03;;;;;;;13.17;6.93;;;;;;;;;;5054737;28;20218;-80
2021/09/22 09:00:30;;;;;;;10.20;7.33;;;;;;;;;;5071834;28;20234;-81
2021/09/22 09:02:57;;;;;;;11.90;7.43;;;;;;;;;;5072294;28;20690;-80
2021/09/22 09:05:25;;;;;;;12.60;7.50;;;;;;;;;;5072045;28;20238;-81
2021/09/22 09:07:52;;;;;;;14.23;7.40;;;;;;;;;;5054171;28;20242;-80
2021/09/22 09:10:20;;;;;;;14.60;7.30;;;;;;;;;;5053770;28;20666;-81
2021/09/22 09:12:57;;;;;;;8.43;6.67;;;;;;;;;;5053868;28;20191;-81
2021/09/22 09:15:29;;;;;;;8.17;6.47;;;;;;;;;;5052302;28;20207;-81
2021/09/22 09:17:59;;;;;;;7.67;5.97;;;;;;;;;;5051125;28;20235;-83
2021/09/22 09:20:28;;;;;;;8.67;6.57;;;;;;;;;;5051887;28;20206;-83
2021/09/22 09:23:06;;;;;;;9.60;6.80;;;;;;;;;;5033878;28;20265;-83
2021/09/22 09:25:34;;;;;;;10.03;6.53;;;;;;;;;;5051275;28;20242;-83
2021/09/22 09:28:15;;;;;;;9.17;6.73;;;;;;;;;;5051139;28;20266;-81
2021/09/22 09:30:44;;;;;;;10.70;6.17;;;;;;;;;;5033656;28;20701;-80
2021/09/22 09:33:11;;;;;;;6.83;5.80;;;;;;;;;;5051485;28;20215;-81
2021/09/22 09:35:39;;;;;;;7.13;5.63;;;;;;;;;;5033378;28;20286;-81
2021/09/22 09:38:10;;;;;;;7.50;6.70;;;;;;;;;;5051872;28;20245;-82
2021/09/22 09:40:37;;;;;;;6.40;5.80;;;;;;;;;;5033513;28;20268;-82
2021/09/22 09:43:05;;;;;;;7.43;5.87;;;;;;;;;;5051297;28;20235;-86
2021/09/22 09:45:33;;;;;;;7.27;5.90;;;;;;;;;;5051146;28;20243;-86
2021/09/22 09:48:00;;;;;;;6.00;5.40;;;;;;;;;;5033458;28;20257;-85
2021/09/22 09:50:27;;;;;;;10.90;6.03;;;;;;;;;;5033645;28;20250;-89
2021/09/22 09:52:56;;;;;;;7.93;5.67;;;;;;;;;;5050852;28;20239;-87
2021/09/22 09:55:25;;;;;;;7.57;5.50;;;;;;;;;;5033609;28;20191;-86
2021/09/22 09:57:53;;;;;;;6.03;5.40;;;;;;;;;;5034034;28;20188;-90
2021/09/22 10:00:22;;;;;;;6.57;5.43;;;;;;;;;;5051972;28;20237;-94
2021/09/22 10:02:50;;;;;;;8.93;5.67;;;;;;;;;;5051027;28;20249;-88
2021/09/22 10:05:16;;;;;;;6.77;5.00;;;;;;;;;;5051408;28;20672;-87
2021/09/22 10:07:47;;;;;;;8.13;5.30;;;;;;;;;;5051420;28;20671;-88
2021/09/22 10:10:15;;;;;;;5.07;4.63;;;;;;;;;;5051478;28;20210;-83
2021/09/22 10:12:42;;;;;;;9.67;4.50;;;;;;;;;;5033214;28;20199;-88
2021/09/22 10:15:09;;;;;;;9.87;4.13;;;;;;;;;;5051144;28;20276;-85
2021/09/22 10:17:37;;;;;;;8.97;4.20;;;;;;;;;;5053322;28;20666;-84
2021/09/22 10:20:04;;;;;;;5.37;4.63;;;;;;;;;;5071664;28;20619;-88
2021/09/22 10:22:31;;;;;;;4.07;3.67;;;;;;;;;;5071184;28;20222;-87
2021/09/22 10:24:59;;;;;;;5.53;4.30;;;;;;;;;;5071195;28;20219;-87
2021/09/22 10:27:27;;;;;;;5.83;4.23;;;;;;;;;;5071122;28;20258;-80
2021/09/22 10:29:58;;;;;;;5.40;3.73;;;;;;;;;;5074115;28;20576;-84
2021/09/22 10:32:36;;;;;;;5.27;3.87;;;;;;;;;;5074716;28;20242;-86
2021/09/22 10:35:21;;;;;;;5.60;4.13;;;;;;;;;;5074939;28;20665;-84
2021/09/22 10:37:48;;;;;;;5.63;3.60;;;;;;;;;;5056728;28;20260;-87
2021/09/22 10:40:16;;;;;;;6.03;3.97;;;;;;;;;;5075015;28;20261;-84
2021/09/22 10:42:44;;;;;;;5.33;3.77;;;;;;;;;;5074336;28;20234;-81
2021/09/22 10:45:12;;;;;;;4.03;3.57;;;;;;;;;;5074416;28;20238;-85
2021/09/22 10:47:39;;;;;;;4.50;4.10;;;;;;;;;;5074081;28;20254;-83
2021/09/22 10:50:06;;;;;;;11.67;3.50;;;;;;;;;;5074060;28;20246;-86
2021/09/22 10:52:36;;;;;;;4.20;3.80;;;;;;;;;;5074713;28;20711;-85
2021/09/22 10:55:06;;;;;;;3.40;2.87;;;;;;;;;;5056703;28;20245;-84
2021/09/22 10:57:33;;;;;;;5.33;2.70;;;;;;;;;;5056041;28;20198;-83
2021/09/22 11:00:09;;;;;;;2.93;2.73;;;;;;;;;;5074279;28;20245;-80
2021/09/22 11:02:41;;;;;;;3.53;2.70;;;;;;;;;;5073728;28;20241;-82
2021/09/22 11:05:07;;;;;;;2.37;2.17;;;;;;;;;;5074599;28;20690;-80
2021/09/22 11:07:53;;;;;;;5.10;3.03;;;;;;;;;;5074233;28;20250;-80
2021/09/22 11:10:36;;;;;;;3.73;3.20;;;;;;;;;;5073704;28;20248;-82
2021/09/22 11:13:22;;;;;;;3.03;2.77;;;;;;;;;;5055450;28;20207;-81
2021/09/22 11:15:50;;;;;;;4.30;2.97;;;;;;;;;;5074430;28;20792;-81
2021/09/22 11:18:18;;;;;;;3.23;2.53;;;;;;;;;;5073928;28;20245;-82
2021/09/22 11:20:52;;;;;;;3.60;3.03;;;;;;;;;;5055664;28;20202;-79
2021/09/22 11:23:21;;;;;;;5.37;2.70;;;;;;;;;;5073498;28;20233;-83
2021/09/22 11:25:47;;;;;;;3.23;2.80;;;;;;;;;;5055824;28;20198;-84
2021/09/22 11:28:14;;;;;;;3.00;2.53;;;;;;;;;;5073441;28;20254;-82
2021/09/22 11:30:43;;;;;;;9.63;2.95;;;;;;;;;;5054893;28;20230;-83
2021/09/22 11:33:18;;;;;;;4.27;2.70;;;;;;;;;;5054576;28;20206;-83
2021/09/22 11:35:45;;;;;;;3.75;2.63;;;;;;;;;;5073376;28;20611;-83
2021/09/22 11:38:12;;;;;;;7.20;3.03;;;;;;;;;;5055002;28;20244;-82
2021/09/22 11:40:38;;;;;;;2.75;2.50;;;;;;;;;;5054994;28;20579;-81
2021/09/22 11:43:07;;;;;;;5.88;2.40;;;;;;;;;;5073771;28;20214;-82
2021/09/22 11:45:34;;;;;;;2.88;2.35;;;;;;;;;;5073566;28;20182;-81
2021/09/22 11:48:01;;;;;;;2.47;2.17;;;;;;;;;;5055144;28;20698;-80
2021/09/22 11:50:31;;;;;;;2.67;2.20;;;;;;;;;;5073362;28;20718;-79
2021/09/22 11:52:58;;;;;;;2.80;2.28;;;;;;;;;;5072938;28;20574;-82
2021/09/22 11:55:25;;;;;;;5.40;3.03;;;;;;;;;;5054763;28;20241;-81
2021/09/22 11:57:52;;;;;;;4.00;2.33;;;;;;;;;;5054827;28;20246;-81
2021/09/22 12:00:20;;;;;;;2.50;2.30;;;;;;;;;;5073221;28;20245;-80
2021/09/22 12:02:46;;;;;;;6.28;2.33;;;;;;;;;;5072938;28;20336;-80
2021/09/22 12:05:14;;;;;;;5.20;2.28;;;;;;;;;;5073077;28;20231;-81
2021/09/22 12:07:42;;;;;;;2.85;2.47;;;;;;;;;;5072656;28;20250;-78
2021/09/22 12:10:08;;;;;;;6.22;2.50;;;;;;;;;;5054915;28;20227;-80
2021/09/22 12:12:36;;;;;;;2.50;2.20;;;;;;;;;;5055287;28;20233;-81
2021/09/22 12:15:04;;;;;;;1.95;1.83;;;;;;;;;;5073085;28;20596;-81
2021/09/22 12:17:33;;;;;;;3.83;2.28;;;;;;;;;;5054675;28;20237;-80
2021/09/22 12:20:00;;;;;;;3.92;2.50;;;;;;;;;;5054631;28;20582;-81
2021/09/22 12:22:28;;;;;;;3.17;2.22;;;;;;;;;;5054549;28;20226;-80
2021/09/22 12:24:56;;;;;;;2.38;2.17;;;;;;;;;;5054485;28;20602;-78
2021/09/22 12:27:23;;;;;;;5.95;2.40;;;;;;;;;;5054539;28;20239;-77
2021/09/22 12:29:55;;;;;;;2.60;2.40;;;;;;;;;;5072487;28;20238;-79
2021/09/22 12:32:23;;;;;;;2.67;2.40;;;;;;;;;;5054309;28;20214;-79
2021/09/22 12:34:50;;;;;;;2.33;2.13;;;;;;;;;;5072278;28;20214;-79
2021/09/22 12:37:18;;;;;;;6.35;2.55;;;;;;;;;;5071778;28;20233;-79
2021/09/22 12:39:51;;;;;;;3.28;2.30;;;;;;;;;;5072192;28;20253;-81
2021/09/22 12:42:19;;;;;;;4.88;2.15;;;;;;;;;;5071639;28;20210;-80
2021/09/22 12:44:53;;;;;;;3.20;2.40;;;;;;;;;;5071816;28;20260;-82
2021/09/22 12:47:19;;;;;;;7.00;2.35;;;;;;;;;;5053618;28;20203;-81
2021/09/22 12:50:01;;;;;;;3.15;2.38;;;;;;;;;;5053861;28;20728;-80
2021/09/22 12:52:28;;;;;;;2.65;2.50;;;;;;;;;;5053265;28;20207;-81
2021/09/22 12:54:54;;;;;;;3.70;1.98;;;;;;;;;;5072088;28;20297;-78
2021/09/22 12:57:23;;;;;;;6.40;2.42;;;;;;;;;;5071922;28;20237;-78
2021/09/22 12:59:49;;;;;;;2.60;2.15;;;;;;;;;;5071782;28;20687;-78
2021/09/22 13:02:22;;;;;;;3.55;2.20;;;;;;;;;;5071688;28;20238;-78
2021/09/22 13:04:49;;;;;;;3.70;3.20;;;;;;;;;;5071784;28;20207;-80
2021/09/22 13:07:21;;;;;;;2.88;2.20;;;;;;;;;;5072042;28;20201;-78
2021/09/22 13:09:48;;;;;;;5.97;2.60;;;;;;;;;;5071567;28;20234;-78
2021/09/22 13:12:28;;;;;;;2.60;2.40;;;;;;;;;;5053962;28;20240;-77
2021/09/22 13:14:55;;;;;;;2.47;2.28;;;;;;;;;;5071192;28;20260;-78
2021/09/22 13:17:22;;;;;;;4.68;2.30;;;;;;;;;;5053175;28;20202;-77
2021/09/22 13:19:48;;;;;;;2.72;1.90;;;;;;;;;;5071468;28;20563;-77
2021/09/22 13:22:15;;;;;;;2.42;2.22;;;;;;;;;;5071739;28;20213;-78
2021/09/22 13:24:41;;;;;;;2.72;1.80;;;;;;;;;;5070998;28;20233;-77
2021/09/22 13:27:08;;;;;;;2.10;2.00;;;;;;;;;;5071625;28;20202;-76
2021/09/22 13:29:36;;;;;;;3.90;2.25;;;;;;;;;;5071188;28;20254;-78
2021/09/22 13:32:04;;;;;;;4.15;1.98;;;;;;;;;;5070688;28;20606;-78
2021/09/22 13:34:31;;;;;;;2.15;2.05;;;;;;;;;;5071243;28;20214;-78
2021/09/22 13:36:58;;;;;;;3.58;2.20;;;;;;;;;;5070978;28;20674;-79
2021/09/22 13:39:25;;;;;;;2.78;2.20;;;;;;;;;;5070750;28;20261;-79
2021/09/22 13:41:52;;;;;;;3.45;2.08;;;;;;;;;;5070395;28;20605;-78
2021/09/22 13:44:19;;;;;;;2.95;2.00;;;;;;;;;;5071266;28;20569;-78
2021/09/22 13:46:48;;;;;;;3.35;2.08;;;;;;;;;;5071201;28;20249;-77
2021/09/22 13:49:15;;;;;;;3.38;2.42;;;;;;;;;;5053035;28;20246;-78
2021/09/22 13:51:43;;;;;;;5.50;2.30;;;;;;;;;;5053094;28;20222;-77
2021/09/22 13:54:10;;;;;;;3.35;1.90;;;;;;;;;;5070909;28;20606;-78
2021/09/22 13:56:37;;;;;;;3.20;2.10;;;;;;;;;;5052542;28;20283;-77
2021/09/22 13:59:03;;;;;;;2.35;2.15;;;;;;;;;;5070660;28;20241;-78
2021/09/22 14:01:30;;;;;;;2.13;1.92;;;;;;;;;;5071150;28;20654;-77
2021/09/22 14:03:58;;;;;;;3.38;2.28;;;;;;;;;;5070855;28;20249;-77
2021/09/22 14:06:25;;;;;;;2.40;2.20;;;;;;;;;;5070821;28;20242;-77
2021/09/22 14:08:52;;;;;;;5.60;1.98;;;;;;;;;;5052525;28;20214;-78
2021/09/22 14:11:19;;;;;;;7.22;2.45;;;;;;;;;;5070415;28;20694;-78
2021/09/22 14:13:46;;;;;;;2.60;2.40;;;;;;;;;;5049230;28;20320;-78
2021/09/22 14:16:12;;;;;;;8.90;2.60;;;;;;;;;;5049718;28;20199;-78
2021/09/22 14:18:39;;;;;;;6.13;2.20;;;;;;;;;;5049470;28;20273;-77
2021/09/22 14:21:07;;;;;;;6.22;2.38;;;;;;;;;;5049679;28;20215;-78
2021/09/22 14:23:34;;;;;;;4.03;2.58;;;;;;;;;;5049090;28;20561;-78
2021/09/22 14:26:00;;;;;;;3.20;2.20;;;;;;;;;;5049374;28;20263;-78
2021/09/22 14:28:27;;;;;;;3.38;2.22;;;;;;;;;;5050565;28;20246;-78
2021/09/22 14:30:54;;;;;;;1.92;1.77;;;;;;;;;;5050655;28;20239;-78
2021/09/22 14:33:22;;;;;;;3.67;2.00;;;;;;;;;;5050829;28;20210;-78
2021/09/22 14:35:48;;;;;;;2.47;1.70;;;;;;;;;;5049280;28;20234;-78
2021/09/22 14:38:16;;;;;;;9.00;2.45;;;;;;;;;;5050697;28;20241;-78
2021/09/22 14:40:45;;;;;;;10.63;2.58;;;;;;;;;;5050581;28;20242;-78
2021/09/22 14:43:12;;;;;;;6.57;2.33;;;;;;;;;;5050971;28;20709;-78